Time;durP1;ratioP1;P1;durP2;ratioP2;P2;SDS_P1;SDS_P2;PMS_P1;PMS_P2;Temp;Humidity;BMP_temperature;BMP_pressure;BME280_temperature;BME280_humidity;BME280_pressure;Samples;Min_cycle;Max_cycle;Signal;HPM_P1;HPM_P2
2022/01/11 00:00:57;;;;;;;29.47;16.17;;;3.60;99.90;;;;;;4994867;28;20187;-93
2022/01/11 00:03:24;;;;;;;29.53;16.03;;;3.60;99.90;;;;;;4995899;28;20199;-93
2022/01/11 00:05:59;;;;;;;29.13;16.30;;;3.60;99.90;;;;;;4995590;28;20246;-91
2022/01/11 00:08:32;;;;;;;28.27;16.00;;;3.60;99.90;;;;;;4996430;28;20180;-91
2022/01/11 00:11:04;;;;;;;26.93;14.67;;;3.60;99.90;;;;;;4996570;28;20175;-91
2022/01/11 00:13:32;;;;;;;24.87;15.33;;;3.60;99.90;;;;;;5417607;22;20269;-92
2022/01/11 00:15:58;;;;;;;22.70;14.87;;;3.50;99.90;;;;;;4949344;28;20188;-92
2022/01/11 00:18:24;;;;;;;20.97;14.33;;;3.50;99.90;;;;;;4957246;28;20225;-92
2022/01/11 00:20:49;;;;;;;25.50;14.73;;;3.50;99.90;;;;;;4955295;28;20184;-92
2022/01/11 00:25:46;;;;;;;25.23;15.00;;;3.50;99.90;;;;;;4953000;29;20177;-92
2022/01/11 00:28:15;;;;;;;21.47;13.73;;;3.50;99.90;;;;;;4957135;28;20636;-92
2022/01/11 00:30:43;;;;;;;25.17;14.27;;;3.50;99.90;;;;;;4957430;28;20624;-92
2022/01/11 00:33:15;;;;;;;24.00;14.20;;;3.50;99.90;;;;;;4957184;28;20679;-93
2022/01/11 00:35:47;;;;;;;25.50;14.57;;;3.50;99.90;;;;;;4957269;28;20265;-92
2022/01/11 00:38:16;;;;;;;25.43;14.20;;;3.50;99.90;;;;;;4956278;28;20216;-90
2022/01/11 00:40:50;;;;;;;23.57;13.97;;;3.50;99.90;;;;;;4957058;28;20178;-92
2022/01/11 00:43:18;;;;;;;24.73;14.87;;;3.50;99.90;;;;;;4956979;28;20176;-92
2022/01/11 00:45:44;;;;;;;26.10;15.03;;;3.50;99.90;;;;;;4957108;28;20203;-92
2022/01/11 00:48:10;;;;;;;28.13;15.87;;;3.50;99.90;;;;;;4957131;28;20170;-94
2022/01/11 00:50:37;;;;;;;29.87;15.43;;;3.50;99.90;;;;;;4956980;28;20523;-91
2022/01/11 00:53:08;;;;;;;33.03;16.27;;;3.50;99.90;;;;;;4957204;28;20679;-92
2022/01/11 00:55:35;;;;;;;28.50;15.17;;;3.50;99.90;;;;;;4956857;28;20173;-92
2022/01/11 00:58:02;;;;;;;27.90;15.67;;;3.40;99.90;;;;;;4975447;28;20212;-92
2022/01/11 01:00:29;;;;;;;26.40;14.70;;;3.50;99.90;;;;;;4976042;28;20180;-92
2022/01/11 01:02:55;;;;;;;24.67;13.97;;;3.40;99.90;;;;;;4976246;28;20219;-92
2022/01/11 01:05:21;;;;;;;26.43;14.93;;;3.50;99.90;;;;;;4956814;28;20209;-92
2022/01/11 01:07:48;;;;;;;25.53;14.53;;;3.40;99.90;;;;;;4957167;28;20180;-92
2022/01/11 01:10:37;;;;;;;25.77;14.67;;;3.40;99.90;;;;;;4956551;28;20188;-92
2022/01/11 01:13:03;;;;;;;24.33;13.80;;;3.40;99.90;;;;;;4957606;29;20327;-92
2022/01/11 01:15:29;;;;;;;24.40;13.97;;;3.40;99.90;;;;;;4956817;28;20173;-92
2022/01/11 01:17:55;;;;;;;21.27;14.00;;;3.50;99.90;;;;;;4957116;28;20217;-93
2022/01/11 01:20:21;;;;;;;26.70;14.53;;;3.40;99.90;;;;;;4956778;28;20184;-92
2022/01/11 01:22:50;;;;;;;25.87;13.97;;;3.40;99.90;;;;;;4956699;28;20181;-92
2022/01/11 01:25:20;;;;;;;23.40;12.50;;;3.40;99.90;;;;;;4970516;28;20176;-92
2022/01/11 01:27:49;;;;;;;22.03;13.10;;;3.40;99.90;;;;;;4975631;28;20188;-92
2022/01/11 01:30:17;;;;;;;21.47;13.23;;;3.40;99.90;;;;;;4972614;28;20509;-92
2022/01/11 01:32:43;;;;;;;22.67;13.20;;;3.40;99.90;;;;;;4956396;28;20177;-92
2022/01/11 01:35:10;;;;;;;20.50;13.03;;;3.40;99.90;;;;;;4956700;28;20223;-93
2022/01/11 01:37:37;;;;;;;19.23;12.50;;;3.40;99.90;;;;;;4956266;28;20212;-93
2022/01/11 01:40:04;;;;;;;19.93;12.63;;;3.40;99.90;;;;;;4968787;28;20176;-92
2022/01/11 01:42:31;;;;;;;21.07;12.80;;;3.40;99.90;;;;;;4974726;28;20187;-92
2022/01/11 01:45:01;;;;;;;23.10;12.97;;;3.40;99.90;;;;;;4970894;28;20173;-92
2022/01/11 01:47:27;;;;;;;19.47;12.77;;;3.40;99.90;;;;;;4968251;28;20278;-92
2022/01/11 01:49:52;;;;;;;19.53;12.23;;;3.40;99.90;;;;;;4972396;28;20268;-92
2022/01/11 01:52:19;;;;;;;21.80;12.53;;;3.40;99.90;;;;;;4968870;28;20192;-92
2022/01/11 01:54:45;;;;;;;21.53;12.40;;;3.40;99.90;;;;;;4973797;28;20570;-92
2022/01/11 01:57:11;;;;;;;19.03;11.80;;;3.40;99.90;;;;;;4975037;28;20200;-92
2022/01/11 01:59:37;;;;;;;21.10;12.90;;;3.40;99.90;;;;;;4974116;28;20634;-92
2022/01/11 02:02:03;;;;;;;20.50;11.63;;;3.40;99.90;;;;;;4973411;28;20722;-92
2022/01/11 02:04:29;;;;;;;18.17;12.50;;;3.40;99.90;;;;;;4975221;28;20191;-92
2022/01/11 02:06:55;;;;;;;18.10;12.60;;;3.40;99.90;;;;;;4965726;28;20177;-92
2022/01/11 02:09:21;;;;;;;19.27;12.13;;;3.40;99.90;;;;;;4955482;28;20192;-92
2022/01/11 02:11:47;;;;;;;20.37;12.00;;;3.40;99.90;;;;;;4955301;28;20185;-92
2022/01/11 02:14:13;;;;;;;21.33;12.30;;;3.40;99.90;;;;;;4955834;28;20233;-92
2022/01/11 02:16:39;;;;;;;20.53;12.40;;;3.40;99.90;;;;;;4955128;28;20538;-92
2022/01/11 02:19:06;;;;;;;20.27;12.50;;;3.40;99.90;;;;;;4959245;28;20173;-92
2022/01/11 02:21:31;;;;;;;17.90;12.00;;;3.40;99.90;;;;;;4965960;28;20173;-92
2022/01/11 02:23:59;;;;;;;20.90;11.77;;;3.40;99.90;;;;;;4974006;28;20185;-92
2022/01/11 02:26:25;;;;;;;19.70;12.10;;;3.40;99.90;;;;;;4974882;28;20271;-92
2022/01/11 02:28:51;;;;;;;17.73;12.07;;;3.30;99.90;;;;;;4973715;28;20216;-92
2022/01/11 02:31:18;;;;;;;18.03;11.63;;;3.40;99.90;;;;;;4969947;28;20196;-92
2022/01/11 02:33:46;;;;;;;17.53;11.50;;;3.40;99.90;;;;;;4955512;28;20178;-92
2022/01/11 02:36:19;;;;;;;17.77;11.40;;;3.40;99.90;;;;;;4963434;28;20343;-92
2022/01/11 02:38:50;;;;;;;20.10;12.37;;;3.40;99.90;;;;;;4968043;28;20633;-92
2022/01/11 02:41:16;;;;;;;19.23;11.67;;;3.40;99.90;;;;;;4955269;28;20186;-93
2022/01/11 02:43:46;;;;;;;19.33;11.70;;;3.40;99.90;;;;;;4955723;28;20184;-92
2022/01/11 02:46:14;;;;;;;20.97;12.13;;;3.40;99.90;;;;;;4965517;28;20173;-93
2022/01/11 02:48:40;;;;;;;17.30;11.20;;;3.30;99.90;;;;;;4975055;28;20169;-92
2022/01/11 02:51:07;;;;;;;22.50;12.67;;;3.30;99.90;;;;;;4973989;28;20180;-91
2022/01/11 02:53:41;;;;;;;17.20;11.83;;;3.30;99.90;;;;;;4973898;28;20216;-93
2022/01/11 02:56:07;;;;;;;16.53;10.93;;;3.30;99.90;;;;;;4973932;28;20176;-93
2022/01/11 02:58:33;;;;;;;18.53;12.10;;;3.30;99.90;;;;;;4959275;28;20235;-92
2022/01/11 03:00:59;;;;;;;18.70;10.97;;;3.30;99.90;;;;;;4974678;28;20188;-92
2022/01/11 03:03:25;;;;;;;18.10;12.13;;;3.30;99.90;;;;;;4974290;28;20244;-92
2022/01/11 03:05:54;;;;;;;17.47;11.47;;;3.30;99.90;;;;;;4974591;28;20189;-92
2022/01/11 03:08:21;;;;;;;18.03;11.47;;;3.30;99.90;;;;;;4971604;28;20209;-92
2022/01/11 03:10:47;;;;;;;18.43;11.17;;;3.30;99.90;;;;;;4954871;28;20260;-92
2022/01/11 03:13:16;;;;;;;16.77;10.77;;;3.30;99.90;;;;;;4966047;28;20243;-92
2022/01/11 03:15:42;;;;;;;14.77;10.37;;;3.30;99.90;;;;;;4974778;28;20185;-93
2022/01/11 03:18:09;;;;;;;17.63;11.47;;;3.30;99.90;;;;;;4974309;28;20216;-92
2022/01/11 03:20:36;;;;;;;16.10;11.00;;;3.30;99.90;;;;;;4973973;28;20212;-92
2022/01/11 03:23:03;;;;;;;16.27;10.80;;;3.30;99.90;;;;;;4975867;28;20191;-91
2022/01/11 03:25:30;;;;;;;16.23;11.13;;;3.30;99.90;;;;;;4977744;28;20275;-93
2022/01/11 03:27:56;;;;;;;21.87;10.63;;;3.40;99.90;;;;;;4977920;28;20196;-92
2022/01/11 03:30:21;;;;;;;15.13;10.73;;;3.30;99.90;;;;;;4977899;28;20731;-92
2022/01/11 03:32:47;;;;;;;13.93;10.47;;;3.30;99.90;;;;;;4977525;28;20239;-93
2022/01/11 03:35:14;;;;;;;20.20;11.50;;;3.40;99.90;;;;;;4977827;28;20203;-92
2022/01/11 03:37:41;;;;;;;16.57;10.83;;;3.40;99.90;;;;;;4977615;28;20285;-93
2022/01/11 03:40:10;;;;;;;15.03;10.67;;;3.30;99.90;;;;;;4960343;28;20200;-92
2022/01/11 03:42:36;;;;;;;14.77;10.40;;;3.30;99.90;;;;;;4958370;28;20268;-91
2022/01/11 03:45:04;;;;;;;18.53;10.90;;;3.30;99.90;;;;;;4958255;28;20184;-92
2022/01/11 03:47:30;;;;;;;15.73;11.33;;;3.30;99.90;;;;;;4958268;28;20612;-92
2022/01/11 03:49:55;;;;;;;16.77;10.87;;;3.30;99.90;;;;;;4958721;29;20181;-92
2022/01/11 03:52:21;;;;;;;16.47;11.20;;;3.40;99.90;;;;;;4958143;28;20185;-92
2022/01/11 03:57:16;;;;;;;16.07;10.87;;;3.40;99.90;;;;;;4959220;28;20264;-92
2022/01/11 03:59:41;;;;;;;17.77;10.97;;;3.30;99.90;;;;;;4958458;28;20173;-92
2022/01/11 04:02:07;;;;;;;15.53;10.47;;;3.30;99.90;;;;;;4958152;28;20181;-92
2022/01/11 04:04:33;;;;;;;13.70;10.30;;;3.30;99.90;;;;;;4957920;28;20511;-92
2022/01/11 04:07:02;;;;;;;16.03;11.03;;;3.30;99.90;;;;;;4957913;28;20521;-92
2022/01/11 04:09:28;;;;;;;15.87;10.77;;;3.30;99.90;;;;;;4957934;28;20712;-92
2022/01/11 04:11:54;;;;;;;14.43;10.67;;;3.40;99.90;;;;;;4957975;28;20201;-92
2022/01/11 04:14:21;;;;;;;16.50;11.00;;;3.30;99.90;;;;;;4957559;28;20236;-92
2022/01/11 04:16:48;;;;;;;17.43;11.10;;;3.30;99.90;;;;;;4957468;28;20647;-93
2022/01/11 04:19:14;;;;;;;17.80;11.13;;;3.30;99.90;;;;;;4957614;28;20174;-92
2022/01/11 04:21:40;;;;;;;19.07;10.70;;;3.30;99.90;;;;;;4957745;28;20186;-92
2022/01/11 04:24:08;;;;;;;19.87;11.47;;;3.30;99.90;;;;;;4957433;28;20197;-93
2022/01/11 04:26:33;;;;;;;16.37;11.00;;;3.30;99.90;;;;;;4958510;28;20178;-92
2022/01/11 04:28:59;;;;;;;15.23;11.17;;;3.30;99.90;;;;;;4957567;28;20177;-91
2022/01/11 04:31:25;;;;;;;14.60;10.23;;;3.30;99.90;;;;;;4957251;28;20189;-93
2022/01/11 04:33:51;;;;;;;18.47;11.30;;;3.30;99.90;;;;;;4957070;28;20187;-93
2022/01/11 04:36:16;;;;;;;17.50;11.70;;;3.30;99.90;;;;;;4957159;28;20193;-91
2022/01/11 04:38:42;;;;;;;16.20;10.73;;;3.30;99.90;;;;;;4957530;28;20490;-92
2022/01/11 04:41:08;;;;;;;17.13;10.80;;;3.20;99.90;;;;;;4957200;28;20544;-91
2022/01/11 04:43:34;;;;;;;15.27;10.57;;;3.20;99.90;;;;;;4957007;28;20213;-92
2022/01/11 04:46:01;;;;;;;18.87;10.37;;;3.20;99.90;;;;;;4956996;28;20303;-92
2022/01/11 04:48:29;;;;;;;15.83;9.93;;;3.30;99.90;;;;;;4956993;28;20208;-92
2022/01/11 04:50:55;;;;;;;16.33;11.10;;;3.30;99.90;;;;;;4957095;28;20634;-92
2022/01/11 04:53:21;;;;;;;16.87;11.10;;;3.20;99.90;;;;;;4967468;28;20278;-92
2022/01/11 04:55:46;;;;;;;15.07;10.53;;;3.20;99.90;;;;;;4976135;28;20210;-92
2022/01/11 04:58:12;;;;;;;16.20;10.57;;;3.30;99.90;;;;;;4976073;28;20239;-92
2022/01/11 05:00:38;;;;;;;15.87;10.50;;;3.30;99.90;;;;;;4976169;28;20642;-92
2022/01/11 05:03:04;;;;;;;16.07;10.83;;;3.30;99.90;;;;;;4976098;28;20187;-92
2022/01/11 05:05:30;;;;;;;16.03;11.20;;;3.20;99.90;;;;;;4976167;28;20275;-91
2022/01/11 05:07:56;;;;;;;15.67;10.40;;;3.30;99.90;;;;;;4975274;28;20184;-92
2022/01/11 05:10:23;;;;;;;14.17;9.73;;;3.30;99.90;;;;;;4956723;28;20228;-92
2022/01/11 05:12:49;;;;;;;17.57;10.67;;;3.30;99.90;;;;;;4956341;28;20491;-92
2022/01/11 05:15:16;;;;;;;21.27;11.73;;;3.20;99.90;;;;;;4956823;28;20208;-92
2022/01/11 05:17:42;;;;;;;15.80;11.00;;;3.20;99.90;;;;;;4956746;28;20678;-92
2022/01/11 05:20:10;;;;;;;17.23;10.63;;;3.20;99.90;;;;;;4956969;28;20617;-92
2022/01/11 05:22:36;;;;;;;15.27;10.50;;;3.20;99.90;;;;;;4956738;28;20231;-92
2022/01/11 05:25:03;;;;;;;15.73;10.47;;;3.20;99.90;;;;;;4956683;28;20181;-92
2022/01/11 05:27:30;;;;;;;17.80;11.30;;;3.30;99.90;;;;;;4976109;28;20212;-93
2022/01/11 05:29:56;;;;;;;18.90;11.33;;;3.20;99.90;;;;;;4975694;28;20264;-92
2022/01/11 05:32:22;;;;;;;20.27;11.07;;;3.20;99.90;;;;;;4975823;28;20267;-92
2022/01/11 05:34:48;;;;;;;16.27;10.53;;;3.20;99.90;;;;;;4968370;28;20254;-92
2022/01/11 05:37:13;;;;;;;14.53;9.57;;;3.30;99.90;;;;;;4974686;28;20204;-93
2022/01/11 05:39:39;;;;;;;15.97;10.57;;;3.20;99.90;;;;;;4959850;28;20511;-92
2022/01/11 05:42:06;;;;;;;15.57;10.67;;;3.20;99.90;;;;;;4956251;28;20182;-93
2022/01/11 05:44:36;;;;;;;19.43;11.50;;;3.20;99.90;;;;;;4956186;28;20200;-92
2022/01/11 05:47:04;;;;;;;18.73;11.47;;;3.20;99.90;;;;;;4955719;28;20185;-91
2022/01/11 05:49:30;;;;;;;16.47;10.77;;;3.20;99.90;;;;;;4956013;28;20604;-92
2022/01/11 05:51:55;;;;;;;15.80;10.40;;;3.20;99.90;;;;;;4956193;28;20208;-91
2022/01/11 05:54:21;;;;;;;15.57;10.93;;;3.20;99.90;;;;;;4956915;28;20188;-92
2022/01/11 05:56:47;;;;;;;18.33;11.20;;;3.20;99.90;;;;;;4956006;28;20644;-92
2022/01/11 05:59:13;;;;;;;15.83;10.97;;;3.30;99.90;;;;;;4956229;28;20189;-92
2022/01/11 06:01:38;;;;;;;18.73;10.57;;;3.20;99.90;;;;;;4955919;28;20180;-92
2022/01/11 06:04:04;;;;;;;18.70;11.80;;;3.20;99.90;;;;;;4966033;28;20685;-92
2022/01/11 06:06:30;;;;;;;17.13;11.20;;;3.20;99.90;;;;;;4974494;28;20263;-92
2022/01/11 06:08:56;;;;;;;16.83;11.30;;;3.20;99.90;;;;;;4970566;28;20267;-92
2022/01/11 06:11:22;;;;;;;15.40;10.73;;;3.20;99.90;;;;;;4975251;28;20176;-92
2022/01/11 06:13:51;;;;;;;15.97;11.00;;;3.20;99.90;;;;;;4974155;28;20735;-92
2022/01/11 06:16:17;;;;;;;18.73;11.17;;;3.20;99.90;;;;;;4975269;28;20247;-92
2022/01/11 06:18:45;;;;;;;18.07;11.70;;;3.20;99.90;;;;;;4974683;28;20212;-92
2022/01/11 06:21:11;;;;;;;17.37;11.23;;;3.20;99.90;;;;;;4975343;28;20204;-92
2022/01/11 06:23:37;;;;;;;18.27;11.83;;;3.20;99.90;;;;;;4965924;28;20612;-92
2022/01/11 06:26:03;;;;;;;19.30;11.43;;;3.20;99.90;;;;;;4955505;28;20612;-92
2022/01/11 06:28:28;;;;;;;19.30;12.43;;;3.20;99.90;;;;;;4966964;28;20200;-92
2022/01/11 06:30:54;;;;;;;18.77;12.37;;;3.20;99.90;;;;;;4975193;28;20176;-92
2022/01/11 06:33:20;;;;;;;22.40;12.57;;;3.20;99.90;;;;;;4974809;28;20247;-92
2022/01/11 06:35:46;;;;;;;18.17;11.27;;;3.20;99.90;;;;;;4975006;28;20238;-92
2022/01/11 06:38:12;;;;;;;20.77;11.93;;;3.20;99.90;;;;;;4972094;28;20208;-92
2022/01/11 06:40:37;;;;;;;21.63;13.20;;;3.20;99.90;;;;;;4954033;28;20192;-90
2022/01/11 06:43:03;;;;;;;18.50;11.47;;;3.20;99.90;;;;;;4955483;28;20193;-91
2022/01/11 06:45:29;;;;;;;23.90;13.10;;;3.20;99.90;;;;;;4955379;28;20232;-91
2022/01/11 06:47:57;;;;;;;20.03;12.60;;;3.10;99.90;;;;;;4955505;28;20217;-90
2022/01/11 06:50:23;;;;;;;17.87;12.50;;;3.10;99.90;;;;;;4955518;28;20201;-93
2022/01/11 06:52:48;;;;;;;21.50;12.10;;;3.10;99.90;;;;;;4955565;28;20228;-92
2022/01/11 06:55:14;;;;;;;21.07;12.57;;;3.10;99.90;;;;;;4955367;28;20181;-92
2022/01/11 06:57:40;;;;;;;20.73;13.50;;;3.10;99.90;;;;;;4977185;28;20698;-92
2022/01/11 07:00:08;;;;;;;24.93;14.23;;;3.10;99.90;;;;;;4978488;28;20204;-90
2022/01/11 07:02:34;;;;;;;24.07;13.40;;;3.10;99.90;;;;;;4960727;28;20189;-92
2022/01/11 07:04:59;;;;;;;23.23;13.10;;;3.10;99.90;;;;;;4957991;28;20181;-92
2022/01/11 07:07:25;;;;;;;21.97;13.17;;;3.10;99.90;;;;;;4958289;28;20192;-89
2022/01/11 07:09:51;;;;;;;21.53;13.90;;;3.10;99.90;;;;;;4958362;28;20200;-90
2022/01/11 07:12:17;;;;;;;20.73;12.73;;;3.00;99.90;;;;;;4958733;28;20492;-90
2022/01/11 07:14:43;;;;;;;17.07;10.87;;;2.90;99.90;;;;;;4958710;28;20755;-90
2022/01/11 07:17:08;;;;;;;19.80;12.17;;;2.90;99.90;;;;;;4958723;28;20307;-93
2022/01/11 07:19:35;;;;;;;17.90;11.60;;;2.80;99.90;;;;;;4959031;28;20185;-91
2022/01/11 07:22:01;;;;;;;19.93;12.83;;;2.70;99.90;;;;;;4958762;28;20592;-90
2022/01/11 07:24:27;;;;;;;20.27;12.80;;;2.60;99.90;;;;;;4959268;28;20185;-89
2022/01/11 07:26:53;;;;;;;24.23;14.07;;;2.60;99.90;;;;;;4958629;28;20185;-90
2022/01/11 07:29:19;;;;;;;18.87;12.13;;;2.60;99.90;;;;;;4958730;28;20276;-90
2022/01/11 07:31:45;;;;;;;20.60;12.83;;;2.60;99.90;;;;;;4958967;28;20228;-90
2022/01/11 07:34:11;;;;;;;20.37;12.97;;;2.60;99.90;;;;;;4958455;28;20616;-90
2022/01/11 07:36:36;;;;;;;22.43;13.17;;;2.60;99.90;;;;;;4958513;28;20528;-90
2022/01/11 07:39:05;;;;;;;20.97;13.10;;;2.60;99.90;;;;;;4958416;28;20276;-90
2022/01/11 07:41:31;;;;;;;19.60;12.60;;;2.50;99.90;;;;;;4958468;28;20177;-90
2022/01/11 07:43:57;;;;;;;19.67;12.63;;;2.50;99.90;;;;;;4958521;28;20189;-91
2022/01/11 07:46:24;;;;;;;21.23;13.50;;;2.40;99.90;;;;;;4958043;28;20660;-89
2022/01/11 07:48:50;;;;;;;18.93;12.60;;;2.40;99.90;;;;;;4957961;28;20178;-91
2022/01/11 07:51:16;;;;;;;20.33;12.70;;;2.40;99.90;;;;;;4957680;29;20191;-91
2022/01/11 07:53:42;;;;;;;19.23;13.20;;;2.30;99.90;;;;;;4958391;28;20181;-89
2022/01/11 07:56:08;;;;;;;22.07;13.60;;;2.30;99.90;;;;;;4959266;28;20185;-91
2022/01/11 07:58:34;;;;;;;23.13;13.50;;;2.30;99.90;;;;;;4958114;28;20714;-89
2022/01/11 08:01:00;;;;;;;23.97;14.07;;;2.40;99.90;;;;;;4958273;28;20220;-90
2022/01/11 08:03:26;;;;;;;23.63;13.90;;;2.30;99.90;;;;;;4957982;29;20488;-90
2022/01/11 08:05:53;;;;;;;18.57;12.17;;;2.40;99.90;;;;;;4957625;28;20196;-89
2022/01/11 08:08:19;;;;;;;24.27;13.20;;;2.40;99.90;;;;;;4957197;28;20715;-91
2022/01/11 08:10:45;;;;;;;19.77;11.60;;;2.40;99.90;;;;;;4957481;28;20174;-91
2022/01/11 08:13:11;;;;;;;19.87;12.53;;;2.40;99.90;;;;;;4957519;28;20233;-92
2022/01/11 08:15:37;;;;;;;19.97;12.43;;;2.40;99.90;;;;;;4957643;28;20521;-92
2022/01/11 08:18:08;;;;;;;23.00;13.27;;;2.40;99.90;;;;;;4957481;28;20216;-91
2022/01/11 08:20:34;;;;;;;21.30;13.07;;;2.40;99.90;;;;;;4957895;28;20177;-92
2022/01/11 08:23:00;;;;;;;23.83;13.57;;;2.40;99.90;;;;;;4958904;28;20643;-91
2022/01/11 08:25:26;;;;;;;22.80;13.63;;;2.40;99.90;;;;;;4957307;28;20504;-89
2022/01/11 08:27:52;;;;;;;20.43;13.10;;;2.50;99.90;;;;;;4957099;28;20181;-90
2022/01/11 08:30:21;;;;;;;20.80;13.17;;;2.50;99.90;;;;;;4975745;28;20192;-90
2022/01/11 08:32:46;;;;;;;20.77;12.63;;;2.50;99.90;;;;;;4976720;28;20185;-90
2022/01/11 08:35:13;;;;;;;22.90;13.53;;;2.50;99.90;;;;;;4976392;28;20612;-90
2022/01/11 08:37:39;;;;;;;21.30;13.33;;;2.50;99.90;;;;;;4976502;28;20212;-90
2022/01/11 08:40:05;;;;;;;25.63;14.77;;;2.50;99.90;;;;;;4959036;28;20193;-89
2022/01/11 08:42:31;;;;;;;24.13;13.37;;;2.50;99.90;;;;;;4956365;28;20177;-90
2022/01/11 08:44:59;;;;;;;24.27;14.87;;;2.60;99.90;;;;;;4957361;28;20193;-90
2022/01/11 08:47:30;;;;;;;25.10;14.30;;;2.60;99.90;;;;;;4957198;28;20182;-90
2022/01/11 08:49:57;;;;;;;25.30;15.03;;;2.60;99.90;;;;;;4957258;28;20328;-89
2022/01/11 08:52:23;;;;;;;30.00;15.60;;;2.70;99.90;;;;;;4956967;28;20344;-90
2022/01/11 08:54:49;;;;;;;28.00;13.30;;;2.70;99.90;;;;;;4955803;28;20220;-89
2022/01/11 08:57:19;;;;;;;19.93;12.77;;;2.80;99.90;;;;;;4956850;28;20555;-89
2022/01/11 08:59:45;;;;;;;30.87;13.73;;;2.90;99.90;;;;;;4956840;28;20519;-89
2022/01/11 09:02:12;;;;;;;22.77;13.73;;;2.90;99.90;;;;;;4954898;28;20185;-89
2022/01/11 09:04:38;;;;;;;22.97;13.77;;;2.90;99.90;;;;;;4949338;28;20181;-89
2022/01/11 09:07:05;;;;;;;23.37;13.43;;;3.00;99.90;;;;;;4956807;28;20189;-89
2022/01/11 09:09:32;;;;;;;23.77;14.90;;;3.10;99.90;;;;;;4956716;28;20596;-89
2022/01/11 09:12:08;;;;;;;24.97;15.80;;;3.10;99.90;;;;;;4956682;28;20504;-90
2022/01/11 09:14:34;;;;;;;21.33;13.17;;;3.20;99.90;;;;;;4956296;28;20236;-89
2022/01/11 09:17:02;;;;;;;21.23;13.80;;;3.20;99.90;;;;;;4956394;28;20600;-91
2022/01/11 09:19:29;;;;;;;24.53;13.90;;;3.20;99.90;;;;;;4956358;28;20201;-90
2022/01/11 09:21:55;;;;;;;21.27;12.73;;;3.30;99.90;;;;;;4956248;28;20586;-90
2022/01/11 09:24:21;;;;;;;22.00;13.47;;;3.30;99.90;;;;;;4956792;28;20243;-91
2022/01/11 09:26:48;;;;;;;25.53;13.70;;;3.30;99.90;;;;;;4956312;28;20191;-92
2022/01/11 09:29:16;;;;;;;23.23;13.67;;;3.30;99.90;;;;;;4956652;28;20197;-92
2022/01/11 09:31:42;;;;;;;24.80;14.37;;;3.30;99.90;;;;;;4956376;28;20178;-92
2022/01/11 09:34:08;;;;;;;23.83;13.27;;;3.40;99.90;;;;;;4956613;28;20189;-90
2022/01/11 09:36:34;;;;;;;21.30;12.80;;;3.40;99.90;;;;;;4956249;28;20188;-90
2022/01/11 09:39:00;;;;;;;22.27;13.47;;;3.40;99.90;;;;;;4956292;28;20199;-91
2022/01/11 09:41:26;;;;;;;25.77;14.27;;;3.50;99.90;;;;;;4955753;28;20182;-90
2022/01/11 09:43:52;;;;;;;23.23;13.90;;;3.50;99.90;;;;;;4956313;28;20185;-91
2022/01/11 09:46:18;;;;;;;33.13;15.50;;;3.50;99.90;;;;;;4956333;28;20213;-91
2022/01/11 09:48:45;;;;;;;32.80;14.90;;;3.50;99.90;;;;;;4956099;28;20188;-91
2022/01/11 09:51:11;;;;;;;26.57;14.27;;;3.60;99.90;;;;;;4956170;28;20284;-90
2022/01/11 09:53:37;;;;;;;25.50;14.73;;;3.60;99.90;;;;;;4956429;28;20177;-91
2022/01/11 09:56:05;;;;;;;27.50;15.30;;;3.50;99.90;;;;;;4955721;28;20248;-90
2022/01/11 09:58:30;;;;;;;26.73;14.20;;;3.50;99.90;;;;;;4955943;28;20555;-92
2022/01/11 10:00:56;;;;;;;26.40;14.60;;;3.50;99.90;;;;;;4955831;28;20192;-91
2022/01/11 10:03:22;;;;;;;23.93;14.10;;;3.50;99.90;;;;;;4956060;28;20185;-91
2022/01/11 10:05:48;;;;;;;22.90;14.37;;;3.50;99.90;;;;;;4956030;28;20181;-91
2022/01/11 10:08:32;;;;;;;26.40;14.40;;;3.60;99.90;;;;;;4955894;28;20184;-91
2022/01/11 10:10:58;;;;;;;24.97;13.83;;;3.50;99.90;;;;;;4955780;28;20221;-91
2022/01/11 10:13:42;;;;;;;28.77;14.53;;;3.60;99.90;;;;;;4955667;28;20689;-92
2022/01/11 10:16:27;;;;;;;27.60;13.50;;;3.60;99.90;;;;;;4955912;28;20177;-90
2022/01/11 10:18:54;;;;;;;27.47;14.77;;;3.60;99.90;;;;;;4956852;28;20253;-90
2022/01/11 10:21:44;;;;;;;24.13;13.97;;;3.60;99.90;;;;;;4955758;28;20227;-90
2022/01/11 10:24:33;;;;;;;23.97;13.63;;;3.60;99.90;;;;;;4956059;28;20223;-88
2022/01/11 10:27:29;;;;;;;23.77;13.27;;;3.60;99.90;;;;;;4956685;28;20165;-90
2022/01/11 10:30:00;;;;;;;25.13;13.97;;;3.60;99.90;;;;;;4936772;29;20182;-89
2022/01/11 10:32:38;;;;;;;28.20;14.80;;;3.60;99.90;;;;;;4938839;29;20272;-91
2022/01/11 10:35:11;;;;;;;23.13;13.70;;;3.60;99.90;;;;;;4940165;29;20186;-90
2022/01/11 10:37:42;;;;;;;25.10;13.30;;;3.60;99.90;;;;;;4940151;29;20213;-90
2022/01/11 10:40:16;;;;;;;25.00;14.27;;;3.70;99.90;;;;;;4957013;28;20177;-90
2022/01/11 10:42:57;;;;;;;28.50;14.83;;;3.80;99.90;;;;;;4959289;28;20177;-91
2022/01/11 10:45:24;;;;;;;23.33;13.90;;;3.80;99.90;;;;;;4959336;28;20173;-89
2022/01/11 10:47:52;;;;;;;28.07;15.27;;;3.80;99.90;;;;;;4959334;28;20181;-91
2022/01/11 10:50:28;;;;;;;25.87;14.60;;;3.80;99.90;;;;;;4959379;28;20184;-92
2022/01/11 10:52:56;;;;;;;26.73;14.30;;;3.80;99.90;;;;;;4959341;28;20173;-90
2022/01/11 10:55:24;;;;;;;26.17;14.97;;;3.80;99.90;;;;;;4958988;28;20213;-91
2022/01/11 10:57:53;;;;;;;30.43;15.97;;;3.80;99.90;;;;;;4958354;28;20270;-92
2022/01/11 11:00:27;;;;;;;27.73;15.17;;;3.80;99.90;;;;;;4959177;28;20621;-91
2022/01/11 11:02:59;;;;;;;26.70;15.13;;;3.70;99.90;;;;;;4959353;28;20321;-91
2022/01/11 11:05:34;;;;;;;27.93;15.27;;;3.70;99.90;;;;;;4959300;28;20178;-91
2022/01/11 11:08:10;;;;;;;31.53;15.57;;;3.70;99.90;;;;;;4959025;28;20180;-90
2022/01/11 11:10:40;;;;;;;26.13;14.33;;;3.80;99.90;;;;;;4958815;28;20519;-90
2022/01/11 11:13:15;;;;;;;25.60;14.00;;;3.80;99.90;;;;;;4959995;28;20228;-92
2022/01/11 11:15:41;;;;;;;25.33;14.47;;;3.80;99.90;;;;;;4958699;28;20612;-91
2022/01/11 11:18:43;;;;;;;23.50;14.50;;;3.80;99.90;;;;;;4958557;28;20308;-91
2022/01/11 11:21:17;;;;;;;25.40;14.23;;;3.80;99.90;;;;;;4956030;29;20193;-91
2022/01/11 11:23:45;;;;;;;29.67;15.07;;;3.90;99.90;;;;;;4958735;28;20184;-93
2022/01/11 11:26:11;;;;;;;31.73;15.67;;;3.90;99.90;;;;;;4958230;28;20238;-91
2022/01/11 11:28:38;;;;;;;31.43;15.63;;;3.90;99.90;;;;;;4958620;28;20280;-91
2022/01/11 11:31:05;;;;;;;30.90;15.63;;;3.90;99.90;;;;;;4958401;28;20192;-92
2022/01/11 11:33:32;;;;;;;29.00;15.27;;;3.90;99.90;;;;;;4958619;28;20185;-91
2022/01/11 11:35:58;;;;;;;32.30;17.03;;;3.90;99.90;;;;;;4958452;28;20213;-91
2022/01/11 11:38:30;;;;;;;30.30;15.60;;;3.90;99.90;;;;;;4958123;28;20252;-91
2022/01/11 11:40:57;;;;;;;29.00;16.10;;;3.90;99.90;;;;;;4958111;29;20189;-90
2022/01/11 11:43:22;;;;;;;27.17;14.87;;;3.90;99.90;;;;;;4957253;28;20245;-91
2022/01/11 11:45:49;;;;;;;29.53;15.80;;;3.90;99.90;;;;;;4959382;28;20197;-91
2022/01/11 11:48:17;;;;;;;32.13;15.87;;;3.90;99.90;;;;;;4958531;28;20186;-92
2022/01/11 11:50:57;;;;;;;32.83;15.87;;;3.90;99.90;;;;;;4958057;28;20181;-89
2022/01/11 11:53:41;;;;;;;29.10;16.00;;;3.90;99.90;;;;;;4958276;28;20523;-91
2022/01/11 11:56:25;;;;;;;30.53;15.53;;;3.90;99.90;;;;;;4957915;28;20170;-92
2022/01/11 11:58:56;;;;;;;30.17;15.67;;;3.90;99.90;;;;;;4957976;28;20304;-91
2022/01/11 12:01:46;;;;;;;28.90;14.63;;;3.90;99.90;;;;;;4958322;28;20185;-90
2022/01/11 12:04:16;;;;;;;28.33;16.17;;;4.00;99.90;;;;;;4957934;28;20177;-92
2022/01/11 12:06:44;;;;;;;30.13;14.97;;;4.00;99.90;;;;;;4958236;28;20177;-90
2022/01/11 12:09:16;;;;;;;28.23;14.60;;;4.00;99.90;;;;;;4957806;28;20189;-91
2022/01/11 12:11:49;;;;;;;25.80;15.03;;;4.00;99.90;;;;;;4957613;28;20535;-91
2022/01/11 12:14:36;;;;;;;30.20;15.57;;;4.00;99.90;;;;;;4957808;28;20641;-91
2022/01/11 12:17:16;;;;;;;26.70;14.00;;;4.10;99.90;;;;;;4957687;28;20205;-91
2022/01/11 12:19:53;;;;;;;24.63;13.73;;;4.10;99.90;;;;;;4957971;28;20612;-91
2022/01/11 12:22:27;;;;;;;26.43;13.37;;;4.10;99.90;;;;;;4958070;28;20244;-92
2022/01/11 12:24:56;;;;;;;22.93;12.93;;;4.20;99.90;;;;;;4957737;28;20205;-90
2022/01/11 12:27:24;;;;;;;21.73;12.97;;;4.10;99.90;;;;;;4957376;28;20232;-92
2022/01/11 12:30:07;;;;;;;26.07;13.00;;;4.20;99.90;;;;;;4957590;28;20184;-91
2022/01/11 12:33:16;;;;;;;24.33;13.17;;;4.20;99.90;;;;;;4957308;28;20217;-90
2022/01/11 12:35:58;;;;;;;22.73;13.37;;;4.10;99.90;;;;;;4957306;28;20197;-92
2022/01/11 12:38:26;;;;;;;25.47;12.93;;;4.10;99.90;;;;;;4957015;28;20201;-92
2022/01/11 12:40:52;;;;;;;22.53;11.93;;;4.10;99.90;;;;;;4957304;28;20244;-92
2022/01/11 12:43:56;;;;;;;26.40;12.50;;;4.10;99.90;;;;;;4956846;28;20181;-91
2022/01/11 12:46:22;;;;;;;25.00;12.60;;;4.20;99.90;;;;;;4956803;28;20181;-90
2022/01/11 12:48:57;;;;;;;21.30;12.57;;;4.20;99.90;;;;;;4956970;28;20177;-91